createdAt,value
2022-12-04T00:00:38.369Z,19.57
2022-12-04T00:03:06.786Z,18.97
2022-12-04T00:05:35.222Z,20.60
2022-12-04T00:08:04.999Z,19.53
2022-12-04T00:10:33.379Z,19.03
2022-12-04T00:13:01.784Z,18.73
2022-12-04T00:15:30.145Z,19.63
2022-12-04T00:17:58.481Z,19.30
2022-12-04T00:20:27.268Z,20.33
2022-12-04T00:22:55.619Z,18.80
2022-12-04T00:25:25.301Z,19.63
2022-12-04T00:27:53.652Z,19.57
2022-12-04T00:30:22.014Z,19.07
2022-12-04T00:32:50.371Z,19.97
2022-12-04T00:35:18.701Z,19.37
2022-12-04T00:37:47.077Z,19.30
2022-12-04T00:40:15.652Z,19.20
2022-12-04T00:42:45.416Z,19.77
2022-12-04T00:45:13.749Z,20.77
2022-12-04T00:47:42.293Z,19.13
2022-12-04T00:50:11.128Z,19.27
2022-12-04T00:52:39.481Z,20.77
2022-12-04T00:55:08.347Z,18.77
2022-12-04T00:57:36.701Z,19.97
2022-12-04T01:00:07.106Z,20.80
2022-12-04T01:02:35.931Z,20.73
2022-12-04T01:05:04.399Z,19.37
2022-12-04T01:07:33.014Z,20.67
2022-12-04T01:10:01.393Z,20.10
2022-12-04T01:12:29.738Z,20.50
2022-12-04T01:14:58.094Z,20.47
2022-12-04T01:17:28.368Z,19.83
2022-12-04T01:19:56.899Z,19.67
2022-12-04T01:22:25.558Z,19.77
2022-12-04T01:24:57.074Z,21.50
2022-12-04T01:27:25.499Z,19.00
2022-12-04T01:29:54.061Z,20.53
2022-12-04T01:32:22.541Z,20.57
2022-12-04T01:34:52.451Z,20.53
2022-12-04T01:37:20.796Z,19.27
2022-12-04T01:39:49.124Z,20.57
2022-12-04T01:42:17.847Z,19.90
2022-12-04T01:44:47.094Z,19.90
2022-12-04T01:47:15.436Z,19.73
2022-12-04T01:49:46.768Z,19.17
2022-12-04T01:52:17.968Z,18.73
2022-12-04T01:54:48.179Z,19.67
2022-12-04T01:57:17.823Z,18.83
2022-12-04T01:59:47.522Z,21.17
2022-12-04T02:02:17.248Z,18.77
2022-12-04T02:04:45.935Z,18.87
2022-12-04T02:07:14.347Z,18.67
2022-12-04T02:09:45.475Z,18.80
2022-12-04T02:12:19.913Z,19.53
2022-12-04T02:14:53.319Z,19.40
2022-12-04T02:17:24.315Z,20.33
2022-12-04T02:20:10.748Z,18.63
2022-12-04T02:22:47.402Z,18.70
2022-12-04T02:25:22.660Z,17.97
2022-12-04T02:28:01.154Z,19.80
2022-12-04T02:30:30.930Z,18.23
2022-12-04T02:33:03.247Z,19.20
2022-12-04T02:35:32.924Z,19.10
2022-12-04T02:38:05.625Z,18.53
2022-12-04T02:40:39.014Z,18.73
2022-12-04T02:43:10.787Z,18.80
2022-12-04T02:45:41.461Z,19.33
2022-12-04T02:48:10.286Z,18.67
2022-12-04T02:50:41.328Z,18.50
2022-12-04T02:53:11.378Z,19.80
2022-12-04T02:55:41.772Z,17.93
2022-12-04T02:58:13.679Z,18.93
2022-12-04T03:00:43.321Z,18.40
2022-12-04T03:03:14.943Z,17.80
2022-12-04T03:05:45.114Z,19.10
2022-12-04T03:08:15.371Z,18.60
2022-12-04T03:10:46.092Z,17.73
2022-12-04T03:13:17.876Z,17.63
2022-12-04T03:15:48.556Z,17.33
2022-12-04T03:18:18.650Z,18.17
2022-12-04T03:20:48.158Z,18.97
2022-12-04T03:23:18.130Z,18.43
2022-12-04T03:25:51.523Z,19.30
2022-12-04T03:28:26.161Z,17.50
2022-12-04T03:30:57.236Z,18.27
2022-12-04T03:33:31.410Z,17.93
2022-12-04T03:36:02.123Z,18.60
2022-12-04T03:38:35.538Z,18.80
2022-12-04T03:41:05.520Z,18.33
2022-12-04T03:43:38.247Z,19.10
2022-12-04T03:46:10.914Z,18.00
2022-12-04T03:48:42.859Z,19.30
2022-12-04T03:51:16.085Z,18.40
2022-12-04T03:53:46.222Z,17.90
2022-12-04T03:56:17.155Z,18.40
2022-12-04T03:58:48.529Z,18.37
2022-12-04T04:01:19.131Z,18.70
2022-12-04T04:03:50.216Z,18.17
2022-12-04T04:06:20.818Z,18.60
2022-12-04T04:08:51.713Z,18.87
2022-12-04T04:11:23.652Z,18.27
2022-12-04T04:14:12.775Z,17.77
2022-12-04T04:17:02.955Z,17.13
2022-12-04T04:19:51.707Z,18.03
2022-12-04T04:22:38.817Z,18.17
2022-12-04T04:25:09.678Z,17.60
2022-12-04T04:27:38.317Z,17.53
2022-12-04T04:30:09.212Z,17.20
2022-12-04T04:32:40.206Z,18.30
2022-12-04T04:35:13.315Z,17.40
2022-12-04T04:37:44.454Z,16.93
2022-12-04T04:40:15.874Z,17.17
2022-12-04T04:42:46.748Z,16.13
2022-12-04T04:45:17.820Z,17.20
2022-12-04T04:47:47.260Z,17.43
2022-12-04T04:50:17.273Z,17.23
2022-12-04T04:52:48.000Z,15.80
2022-12-04T04:55:16.721Z,16.73
2022-12-04T04:57:45.132Z,15.60
2022-12-04T05:00:15.774Z,16.40
2022-12-04T05:02:45.805Z,17.93
2022-12-04T05:05:14.830Z,16.27
2022-12-04T05:07:43.200Z,14.93
2022-12-04T05:10:12.245Z,16.17
2022-12-04T05:12:40.580Z,14.93
2022-12-04T05:15:09.566Z,14.47
2022-12-04T05:17:38.135Z,15.33
2022-12-04T05:20:08.795Z,15.17
2022-12-04T05:22:38.521Z,14.27
2022-12-04T05:25:07.632Z,14.53
2022-12-04T05:27:35.967Z,14.23
2022-12-04T05:30:04.390Z,14.07
2022-12-04T05:32:32.686Z,14.57
2022-12-04T05:35:01.662Z,14.70
2022-12-04T05:37:33.667Z,15.20
2022-12-04T05:40:02.002Z,14.47
2022-12-04T05:42:30.299Z,13.60
2022-12-04T05:44:58.642Z,14.17
2022-12-04T05:47:27.005Z,14.33
2022-12-04T05:49:55.596Z,15.20
2022-12-04T05:52:24.054Z,14.40
2022-12-04T05:54:53.743Z,14.67
2022-12-04T05:57:25.290Z,15.57
2022-12-04T05:59:54.174Z,15.20
2022-12-04T06:02:22.946Z,15.37
2022-12-04T06:04:51.288Z,13.87
2022-12-04T06:07:19.658Z,14.80
2022-12-04T06:09:48.013Z,14.77
2022-12-04T06:12:17.756Z,14.37
2022-12-04T06:14:46.100Z,14.97
2022-12-04T06:17:14.437Z,14.03
2022-12-04T06:19:42.781Z,14.57
2022-12-04T06:22:11.128Z,13.90
2022-12-04T06:24:40.554Z,15.23
2022-12-04T06:27:27.396Z,13.63
2022-12-04T06:29:58.046Z,13.43
2022-12-04T06:32:26.807Z,13.93
2022-12-04T06:34:55.722Z,15.83
2022-12-04T06:37:25.165Z,13.10
2022-12-04T06:39:53.815Z,14.40
2022-12-04T06:42:22.342Z,13.33
2022-12-04T06:44:51.002Z,14.07
2022-12-04T06:47:20.736Z,13.80
2022-12-04T06:49:50.894Z,13.80
2022-12-04T06:52:19.596Z,13.87
2022-12-04T06:54:47.925Z,13.70
2022-12-04T06:57:16.302Z,13.57
2022-12-04T06:59:44.636Z,14.83
2022-12-04T07:02:13.061Z,14.83
2022-12-04T07:04:42.806Z,13.70
2022-12-04T07:07:11.196Z,15.00
2022-12-04T07:09:39.683Z,14.20
2022-12-04T07:12:08.217Z,14.10
2022-12-04T07:14:36.557Z,14.97
2022-12-04T07:17:04.986Z,14.60
2022-12-04T07:19:33.348Z,13.97
2022-12-04T07:22:03.041Z,13.07
2022-12-04T07:24:31.381Z,13.17
2022-12-04T07:26:59.771Z,14.33
2022-12-04T07:29:28.170Z,14.40
2022-12-04T07:31:56.623Z,13.47
2022-12-04T07:34:26.199Z,13.40
2022-12-04T07:36:54.548Z,13.87
2022-12-04T07:39:24.329Z,13.77
2022-12-04T07:41:52.690Z,13.60
2022-12-04T07:44:21.052Z,13.97
2022-12-04T07:46:49.424Z,12.60
2022-12-04T07:49:18.110Z,12.77
2022-12-04T07:51:46.466Z,14.27
2022-12-04T07:54:14.856Z,13.47
2022-12-04T07:56:44.600Z,13.53
2022-12-04T07:59:12.984Z,12.87
2022-12-04T08:01:41.426Z,13.20
2022-12-04T08:04:10.000Z,13.07
2022-12-04T08:06:38.572Z,13.23
2022-12-04T08:09:10.051Z,13.37
2022-12-04T08:11:38.883Z,12.37
2022-12-04T08:14:09.860Z,12.87
2022-12-04T08:16:38.401Z,13.57
2022-12-04T08:19:07.124Z,12.40
2022-12-04T08:21:35.980Z,13.07
2022-12-04T08:24:04.451Z,12.03
2022-12-04T08:26:33.846Z,13.00
2022-12-04T08:29:02.544Z,12.80
2022-12-04T08:31:33.810Z,11.93
2022-12-04T08:34:03.228Z,10.90
2022-12-04T08:36:32.187Z,12.07
2022-12-04T08:39:02.422Z,11.30
2022-12-04T08:41:30.797Z,11.43
2022-12-04T08:43:59.628Z,11.50
2022-12-04T08:46:28.807Z,11.47
2022-12-04T08:48:59.079Z,11.73
2022-12-04T08:51:28.597Z,10.73
2022-12-04T08:53:57.440Z,10.63
2022-12-04T08:56:26.504Z,11.57
2022-12-04T08:58:55.140Z,11.43
2022-12-04T09:01:23.566Z,12.50
2022-12-04T09:03:52.017Z,11.70
2022-12-04T09:06:22.166Z,11.30
2022-12-04T09:08:53.283Z,11.60
2022-12-04T09:11:22.394Z,12.07
2022-12-04T09:13:50.736Z,12.80
2022-12-04T09:16:20.380Z,12.07
2022-12-04T09:18:48.775Z,11.47
2022-12-04T09:21:17.963Z,12.07
2022-12-04T09:23:47.724Z,11.93
2022-12-04T09:26:21.622Z,12.27
2022-12-04T09:28:50.376Z,12.10
2022-12-04T09:31:19.736Z,11.63
2022-12-04T09:33:48.251Z,12.03
2022-12-04T09:36:17.099Z,12.23
2022-12-04T09:38:46.376Z,11.33
2022-12-04T09:41:25.810Z,12.37
2022-12-04T09:43:57.935Z,12.40
2022-12-04T09:46:28.929Z,12.17
2022-12-04T09:48:59.006Z,12.60
2022-12-04T09:51:27.986Z,12.83
2022-12-04T09:53:58.376Z,12.87
2022-12-04T09:56:30.558Z,13.30
2022-12-04T09:59:01.249Z,13.53
2022-12-04T10:01:32.000Z,13.50
2022-12-04T10:04:06.017Z,12.83
2022-12-04T10:06:37.802Z,13.43
2022-12-04T10:09:09.652Z,12.97
2022-12-04T10:11:44.320Z,12.73
2022-12-04T10:14:20.547Z,14.00
2022-12-04T10:16:55.111Z,13.43
2022-12-04T10:19:29.489Z,13.30
2022-12-04T10:22:03.304Z,13.83
2022-12-04T10:24:36.712Z,13.53
2022-12-04T10:27:10.980Z,13.93
2022-12-04T10:29:40.519Z,13.67
2022-12-04T10:32:17.584Z,12.80
2022-12-04T10:34:46.219Z,12.67
2022-12-04T10:37:15.726Z,13.40
2022-12-04T10:39:46.682Z,13.07
2022-12-04T10:42:25.336Z,13.87
2022-12-04T10:44:53.828Z,12.80
2022-12-04T10:47:24.001Z,13.23
2022-12-04T10:49:56.884Z,13.00
2022-12-04T10:52:25.534Z,12.43
2022-12-04T10:54:55.460Z,13.73
2022-12-04T10:57:35.896Z,13.40
2022-12-04T11:00:06.232Z,13.03
2022-12-04T11:02:35.553Z,13.23
2022-12-04T11:05:05.363Z,13.47
2022-12-04T11:07:36.975Z,13.17
2022-12-04T11:10:07.559Z,14.27
2022-12-04T11:12:37.541Z,14.13
2022-12-04T11:15:14.066Z,13.23
2022-12-04T11:17:42.454Z,13.63
2022-12-04T11:20:16.956Z,13.83
2022-12-04T11:22:51.168Z,13.93
2022-12-04T11:25:20.541Z,14.53
2022-12-04T11:27:51.550Z,15.17
2022-12-04T11:30:21.614Z,14.87
2022-12-04T11:32:50.087Z,13.77
2022-12-04T11:35:19.737Z,14.37
2022-12-04T11:37:54.472Z,15.00
2022-12-04T11:40:23.075Z,13.10
2022-12-04T11:43:01.417Z,14.43
2022-12-04T11:45:29.798Z,14.63
2022-12-04T11:47:59.034Z,14.07
2022-12-04T11:50:31.213Z,14.83
2022-12-04T11:53:04.307Z,15.70
2022-12-04T11:55:36.014Z,15.20
2022-12-04T11:58:22.823Z,15.50
2022-12-04T12:00:54.599Z,16.00
2022-12-04T12:03:24.928Z,16.57
2022-12-04T12:06:18.230Z,15.00
2022-12-04T12:09:01.927Z,15.23
2022-12-04T12:11:33.872Z,16.77
2022-12-04T12:14:09.407Z,15.17
2022-12-04T12:16:48.550Z,16.13
2022-12-04T12:19:29.801Z,15.33
2022-12-04T12:22:05.480Z,15.60
2022-12-04T12:24:45.566Z,15.67
2022-12-04T12:27:34.795Z,14.93
2022-12-04T12:30:06.612Z,13.93
2022-12-04T12:32:42.530Z,15.27
2022-12-04T12:35:18.633Z,14.80
2022-12-04T12:37:49.577Z,15.77
2022-12-04T12:40:25.870Z,15.37
2022-12-04T12:42:58.401Z,15.03
2022-12-04T12:45:31.355Z,14.30
2022-12-04T12:48:03.509Z,15.07
2022-12-04T12:50:35.851Z,15.00
2022-12-04T12:53:07.364Z,14.90
2022-12-04T12:55:38.012Z,15.43
2022-12-04T12:58:09.173Z,14.87
2022-12-04T13:00:41.141Z,15.43
2022-12-04T13:03:19.985Z,15.37
2022-12-04T13:05:50.019Z,14.83
2022-12-04T13:08:23.397Z,15.40
2022-12-04T13:10:55.605Z,14.10
2022-12-04T13:13:26.571Z,16.77
2022-12-04T13:15:58.885Z,14.60
2022-12-04T13:18:29.674Z,14.37
2022-12-04T13:21:01.136Z,15.10
2022-12-04T13:23:40.689Z,15.73
2022-12-04T13:26:12.379Z,15.50
2022-12-04T13:28:48.302Z,15.60
2022-12-04T13:31:25.072Z,14.73
2022-12-04T13:34:01.555Z,15.27
2022-12-04T13:36:50.191Z,14.90
2022-12-04T13:39:38.288Z,15.17
2022-12-04T13:42:07.860Z,15.07
2022-12-04T13:44:37.260Z,14.55
2022-12-04T13:47:07.841Z,15.87
2022-12-04T13:49:37.137Z,14.53
2022-12-04T13:52:07.365Z,15.27
2022-12-04T13:54:36.939Z,15.57
2022-12-04T13:57:20.979Z,14.13
2022-12-04T13:59:50.181Z,15.63
2022-12-04T14:02:24.378Z,15.20
2022-12-04T14:04:58.208Z,16.97
2022-12-04T14:07:31.911Z,17.00
2022-12-04T14:10:01.943Z,16.73
2022-12-04T14:12:31.768Z,15.20
2022-12-04T14:15:00.911Z,15.43
2022-12-04T14:17:31.971Z,15.10
2022-12-04T14:20:07.386Z,14.03
2022-12-04T14:22:44.110Z,14.33
2022-12-04T14:25:26.968Z,14.43
2022-12-04T14:27:55.694Z,14.33
2022-12-04T14:30:24.990Z,13.53
2022-12-04T14:32:58.002Z,14.07
2022-12-04T14:35:27.403Z,13.57
2022-12-04T14:37:58.161Z,13.63
2022-12-04T14:40:27.651Z,14.43
2022-12-04T14:42:56.506Z,14.03
2022-12-04T14:45:30.957Z,12.83
2022-12-04T14:48:09.090Z,15.13
2022-12-04T14:50:42.899Z,13.30
2022-12-04T14:53:15.195Z,13.27
2022-12-04T14:55:48.270Z,13.63
2022-12-04T14:58:34.690Z,13.10
2022-12-04T15:01:04.145Z,13.23
2022-12-04T15:03:37.443Z,14.73
2022-12-04T15:06:07.315Z,13.30
2022-12-04T15:08:35.838Z,13.33
2022-12-04T15:11:25.417Z,13.53
2022-12-04T15:13:53.749Z,13.17
2022-12-04T15:16:23.181Z,14.60
2022-12-04T15:18:56.611Z,13.93
2022-12-04T15:21:26.397Z,13.17
2022-12-04T15:23:54.743Z,12.00
2022-12-04T15:26:26.832Z,13.10
2022-12-04T15:28:56.613Z,12.57
2022-12-04T15:31:25.810Z,12.63
2022-12-04T15:33:55.099Z,13.17
2022-12-04T15:36:31.806Z,13.83
2022-12-04T15:39:02.511Z,12.63
2022-12-04T15:41:32.505Z,14.03
2022-12-04T15:44:01.172Z,13.60
2022-12-04T15:46:32.856Z,13.00
2022-12-04T15:49:17.893Z,12.73
2022-12-04T15:51:48.488Z,13.30
2022-12-04T15:54:18.811Z,14.17
2022-12-04T15:56:47.154Z,12.80
2022-12-04T15:59:18.876Z,13.73
2022-12-04T16:01:47.311Z,14.70
2022-12-04T16:04:22.607Z,14.47
2022-12-04T16:06:53.767Z,14.50
2022-12-04T16:09:23.643Z,15.47
2022-12-04T16:11:59.360Z,15.00
2022-12-04T16:14:27.961Z,15.90
2022-12-04T16:17:02.562Z,14.20
2022-12-04T16:19:35.146Z,16.00
2022-12-04T16:22:05.842Z,15.53
2022-12-04T16:24:34.263Z,15.17
2022-12-04T16:27:04.480Z,15.03
2022-12-04T16:29:32.816Z,16.27
2022-12-04T16:32:03.312Z,15.90
2022-12-04T16:34:32.144Z,16.47
2022-12-04T16:37:01.122Z,16.40
2022-12-04T16:39:30.852Z,15.53
2022-12-04T16:41:59.201Z,15.60
2022-12-04T16:44:27.544Z,16.58
2022-12-04T16:46:55.934Z,16.33
2022-12-04T16:49:24.324Z,17.42
2022-12-04T16:51:52.631Z,17.23
2022-12-04T16:54:21.034Z,20.67
2022-12-04T16:56:50.758Z,23.23
2022-12-04T16:59:19.164Z,21.20
2022-12-04T17:01:48.490Z,21.37
2022-12-04T17:04:17.234Z,23.77
2022-12-04T17:06:46.074Z,24.20
2022-12-04T17:09:14.554Z,22.67
2022-12-04T17:11:43.055Z,22.53
2022-12-04T17:14:13.099Z,22.67
2022-12-04T17:16:42.972Z,21.83
2022-12-04T17:19:12.047Z,19.93
2022-12-04T17:21:41.866Z,21.53
2022-12-04T17:24:10.550Z,20.60
2022-12-04T17:26:38.932Z,21.03
2022-12-04T17:29:07.434Z,20.03
2022-12-04T17:31:37.631Z,19.00
2022-12-04T17:34:06.230Z,18.53
2022-12-04T17:36:34.594Z,18.20
2022-12-04T17:39:03.299Z,18.73
2022-12-04T17:41:31.636Z,18.87
2022-12-04T17:44:01.118Z,18.20
2022-12-04T17:46:29.624Z,19.30
2022-12-04T17:49:03.895Z,19.17
2022-12-04T17:51:35.866Z,19.03
2022-12-04T17:54:04.397Z,18.50
2022-12-04T17:56:33.060Z,19.67
2022-12-04T17:59:01.408Z,19.70
2022-12-04T18:01:30.946Z,20.23
2022-12-04T18:04:01.874Z,21.10
2022-12-04T18:06:31.142Z,21.97
2022-12-04T18:08:59.563Z,21.37
2022-12-04T18:11:29.185Z,22.60
2022-12-04T18:13:58.289Z,21.93
2022-12-04T18:16:27.465Z,22.03
2022-12-04T18:18:56.094Z,22.93
2022-12-04T18:21:25.926Z,22.43
2022-12-04T18:23:54.288Z,22.67
2022-12-04T18:26:23.854Z,22.87
2022-12-04T18:28:53.267Z,21.17
2022-12-04T18:31:21.640Z,22.43
2022-12-04T18:33:50.224Z,21.83
2022-12-04T18:36:19.407Z,21.23
2022-12-04T18:38:49.700Z,22.33
2022-12-04T18:41:18.029Z,23.03
2022-12-04T18:43:46.791Z,23.40
2022-12-04T18:46:16.313Z,22.87
2022-12-04T18:48:45.500Z,23.37
2022-12-04T18:51:18.343Z,24.57
2022-12-04T18:53:46.769Z,24.47
2022-12-04T18:56:17.375Z,25.70
2022-12-04T18:58:46.550Z,25.23
2022-12-04T19:01:16.311Z,26.77
2022-12-04T19:03:44.708Z,24.00
2022-12-04T19:06:13.242Z,27.23
2022-12-04T19:08:43.388Z,27.03
2022-12-04T19:11:12.877Z,26.33
2022-12-04T19:13:42.905Z,26.60
2022-12-04T19:16:13.113Z,25.97
2022-12-04T19:18:42.187Z,25.83
2022-12-04T19:21:10.976Z,26.07
2022-12-04T19:23:39.474Z,26.10
2022-12-04T19:26:08.051Z,25.57
2022-12-04T19:28:37.281Z,26.40
2022-12-04T19:31:07.037Z,28.57
2022-12-04T19:33:35.442Z,27.27
2022-12-04T19:36:05.084Z,24.73
2022-12-04T19:38:34.049Z,26.47
2022-12-04T19:41:06.334Z,26.07
2022-12-04T19:43:34.717Z,27.63
2022-12-04T19:46:03.440Z,26.63
2022-12-04T19:48:33.223Z,26.73
2022-12-04T19:51:05.189Z,25.33
2022-12-04T19:53:39.181Z,26.30
2022-12-04T19:56:10.273Z,27.03
2022-12-04T19:58:38.941Z,25.93
2022-12-04T20:01:08.074Z,26.90
2022-12-04T20:03:38.274Z,25.40
2022-12-04T20:06:08.299Z,26.20
2022-12-04T20:08:37.197Z,27.13
2022-12-04T20:11:05.783Z,25.93
2022-12-04T20:13:36.292Z,25.20
2022-12-04T20:16:05.551Z,26.90
2022-12-04T20:18:34.015Z,26.03
2022-12-04T20:21:04.943Z,26.10
2022-12-04T20:23:33.315Z,25.93
2022-12-04T20:26:05.154Z,26.50
2022-12-04T20:28:33.533Z,26.00
2022-12-04T20:31:02.349Z,26.97
2022-12-04T20:33:30.809Z,25.80
2022-12-04T20:36:02.053Z,27.20
2022-12-04T20:38:31.829Z,27.47
2022-12-04T20:41:03.970Z,26.97
2022-12-04T20:43:32.372Z,26.63
2022-12-04T20:46:00.948Z,25.57
2022-12-04T20:48:29.816Z,26.80
2022-12-04T20:50:58.139Z,25.73
2022-12-04T20:53:26.633Z,25.07
2022-12-04T20:55:56.733Z,24.80
2022-12-04T20:58:25.458Z,25.67
2022-12-04T21:00:53.927Z,26.93
2022-12-04T21:03:22.444Z,25.20
2022-12-04T21:05:50.951Z,25.57
2022-12-04T21:08:39.296Z,27.93
2022-12-04T21:11:09.123Z,25.83
2022-12-04T21:13:56.528Z,25.60
2022-12-04T21:16:24.993Z,26.27
2022-12-04T21:18:53.508Z,25.53
2022-12-04T21:21:22.471Z,25.43
2022-12-04T21:23:51.681Z,25.13
2022-12-04T21:26:22.428Z,26.07
2022-12-04T21:28:50.873Z,25.30
2022-12-04T21:31:19.245Z,25.30
2022-12-04T21:33:47.640Z,24.23
2022-12-04T21:36:16.108Z,24.93
2022-12-04T21:38:44.452Z,25.23
2022-12-04T21:41:34.122Z,25.07
2022-12-04T21:44:05.714Z,24.10
2022-12-04T21:46:34.212Z,24.77
2022-12-04T21:49:03.348Z,23.60
2022-12-04T21:51:56.152Z,24.77
2022-12-04T21:54:20.784Z,23.87
2022-12-04T21:56:49.219Z,23.90
2022-12-04T21:59:19.170Z,25.17
2022-12-04T22:01:47.614Z,25.63
2022-12-04T22:04:16.023Z,24.13
2022-12-04T22:06:44.644Z,24.00
2022-12-04T22:09:13.875Z,24.30
2022-12-04T22:11:42.606Z,24.33
2022-12-04T22:14:11.287Z,23.90
2022-12-04T22:16:42.675Z,23.77
2022-12-04T22:19:12.016Z,24.33
2022-12-04T22:21:40.823Z,25.10
2022-12-04T22:24:10.467Z,23.93
2022-12-04T22:26:39.290Z,23.73
2022-12-04T22:29:41.632Z,24.40
2022-12-04T22:31:58.030Z,23.80
2022-12-04T22:34:26.398Z,24.30
2022-12-04T22:36:54.704Z,26.27
2022-12-04T22:39:23.086Z,24.30
2022-12-04T22:41:51.468Z,25.13
2022-12-04T22:44:19.811Z,24.53
2022-12-04T22:46:48.217Z,24.57
2022-12-04T22:49:18.034Z,26.23
2022-12-04T22:51:46.412Z,23.20
2022-12-04T22:54:15.930Z,26.27
2022-12-04T22:56:44.640Z,23.70
2022-12-04T22:59:13.146Z,24.70
2022-12-04T23:01:41.505Z,23.90
2022-12-04T23:04:09.861Z,24.97
2022-12-04T23:06:40.023Z,24.67
2022-12-04T23:09:09.497Z,24.23
2022-12-04T23:11:38.107Z,24.67
2022-12-04T23:14:07.107Z,25.00
2022-12-04T23:16:37.166Z,24.60
2022-12-04T23:19:06.521Z,25.07
2022-12-04T23:21:35.154Z,25.10
2022-12-04T23:24:05.032Z,24.07
2022-12-04T23:26:34.384Z,25.53
2022-12-04T23:29:03.221Z,25.00
2022-12-04T23:31:32.335Z,24.80
2022-12-04T23:34:01.245Z,24.67
2022-12-04T23:36:29.876Z,25.00
2022-12-04T23:38:58.727Z,24.33
2022-12-04T23:41:30.262Z,24.97
2022-12-04T23:43:59.072Z,23.97
2022-12-04T23:46:28.937Z,24.93
2022-12-04T23:48:57.419Z,25.83
2022-12-04T23:51:26.119Z,25.47
2022-12-04T23:53:54.851Z,24.93
2022-12-04T23:56:23.948Z,24.97
2022-12-04T23:58:54.747Z,23.67
